3IL8 weather

Kuntz Restricted Landing Area
Gridley, Illinois, United States

Public forecast

Using degrees Fahrenheit for public forecast. Weather courtesy of forecast.io.

Closest aviation weather report (METAR) to Kuntz Restricted Landing Area

Closest report is Central Illinois Regional Airport at Bloomington-Normal, 13.3 nm (24.7 km) S. Retrieved 2020/05/29 02:56 UTC (47 minutes ago):

KBMI 290256Z 22004KT 10SM BKN110 19/18 A2990 RMK AO2 RAE04 SLP115 P0000 60005 T01890183 51005

Closest aviation forecast (TAF) to Kuntz Restricted Landing Area

Closest forecast is Central Illinois Regional Airport at Bloomington-Normal, 13.3 nm (24.7 km) S. Retrieved 2020-05-29 00:22 UTC (3 hours ago):

TAF KBMI 282320Z 2900/2924 27014KT P6SM VCTS SCT045CB BKN080 FM290100 29008KT 6SM -SHRA VCTS OVC035CB FM290300 33008KT P6SM VCSH OVC035 FM290900 33009KT P6SM BKN020 FM291600 32013G20KT P6SM FEW040 SCT250